sensor_id;sensor_type;location;lat;lon;timestamp;P1;durP1;ratioP1;P2;durP2;ratioP2
42904;SDS011;28550;51.228;4.528;2024-03-08T07:21:28;46.28;;;22.67;;
42904;SDS011;28550;51.228;4.528;2024-03-08T07:57:55;41.55;;;21.63;;
42904;SDS011;28550;51.228;4.528;2024-03-08T08:01:02;39.78;;;21.92;;
42904;SDS011;28550;51.228;4.528;2024-03-08T08:03:33;40.95;;;21.23;;
42904;SDS011;28550;51.228;4.528;2024-03-08T08:06:15;39.00;;;21.50;;
42904;SDS011;28550;51.228;4.528;2024-03-08T08:09:08;40.58;;;22.15;;
42904;SDS011;28550;51.228;4.528;2024-03-08T08:12:13;37.22;;;20.95;;
42904;SDS011;28550;51.228;4.528;2024-03-08T08:14:43;39.20;;;21.98;;
42904;SDS011;28550;51.228;4.528;2024-03-08T08:17:14;38.47;;;22.75;;
42904;SDS011;28550;51.228;4.528;2024-03-08T08:19:47;42.25;;;22.27;;
42904;SDS011;28550;51.228;4.528;2024-03-08T08:22:12;33.00;;;19.65;;
42904;SDS011;28550;51.228;4.528;2024-03-08T08:24:39;41.58;;;21.98;;
42904;SDS011;28550;51.228;4.528;2024-03-08T08:27:06;40.70;;;22.05;;
42904;SDS011;28550;51.228;4.528;2024-03-08T08:29:32;37.35;;;21.55;;
42904;SDS011;28550;51.228;4.528;2024-03-08T08:31:58;32.83;;;20.02;;
42904;SDS011;28550;51.228;4.528;2024-03-08T08:34:24;34.15;;;20.17;;
42904;SDS011;28550;51.228;4.528;2024-03-08T08:36:52;36.38;;;20.60;;
42904;SDS011;28550;51.228;4.528;2024-03-08T08:39:19;38.63;;;21.75;;
42904;SDS011;28550;51.228;4.528;2024-03-08T08:41:48;35.63;;;21.13;;
42904;SDS011;28550;51.228;4.528;2024-03-08T08:44:16;37.33;;;20.58;;
42904;SDS011;28550;51.228;4.528;2024-03-08T08:46:42;36.55;;;20.70;;
42904;SDS011;28550;51.228;4.528;2024-03-08T08:49:08;35.53;;;21.25;;
42904;SDS011;28550;51.228;4.528;2024-03-08T08:51:48;33.70;;;20.45;;
42904;SDS011;28550;51.228;4.528;2024-03-08T08:54:17;34.22;;;20.40;;
42904;SDS011;28550;51.228;4.528;2024-03-08T08:56:44;34.55;;;20.05;;
42904;SDS011;28550;51.228;4.528;2024-03-08T08:59:13;35.05;;;19.98;;
42904;SDS011;28550;51.228;4.528;2024-03-08T09:01:39;31.10;;;19.65;;
42904;SDS011;28550;51.228;4.528;2024-03-08T09:04:05;32.45;;;19.10;;
42904;SDS011;28550;51.228;4.528;2024-03-08T09:06:32;30.33;;;18.58;;
42904;SDS011;28550;51.228;4.528;2024-03-08T09:08:58;33.95;;;19.85;;
42904;SDS011;28550;51.228;4.528;2024-03-08T09:11:24;34.05;;;19.45;;
42904;SDS011;28550;51.228;4.528;2024-03-08T09:13:53;33.33;;;19.33;;
42904;SDS011;28550;51.228;4.528;2024-03-08T09:16:28;33.25;;;19.08;;
42904;SDS011;28550;51.228;4.528;2024-03-08T09:18:55;31.92;;;19.13;;
42904;SDS011;28550;51.228;4.528;2024-03-08T09:21:22;30.77;;;19.05;;
42904;SDS011;28550;51.228;4.528;2024-03-08T09:23:50;31.45;;;19.45;;
42904;SDS011;28550;51.228;4.528;2024-03-08T09:26:18;33.42;;;20.20;;
42904;SDS011;28550;51.228;4.528;2024-03-08T09:28:46;30.83;;;18.90;;
42904;SDS011;28550;51.228;4.528;2024-03-08T09:31:12;29.30;;;19.65;;
42904;SDS011;28550;51.228;4.528;2024-03-08T09:33:42;27.08;;;18.17;;
42904;SDS011;28550;51.228;4.528;2024-03-08T09:36:09;29.10;;;18.70;;
42904;SDS011;28550;51.228;4.528;2024-03-08T09:38:40;28.08;;;18.35;;
42904;SDS011;28550;51.228;4.528;2024-03-08T09:41:13;32.95;;;19.67;;
42904;SDS011;28550;51.228;4.528;2024-03-08T09:43:40;29.67;;;18.55;;
42904;SDS011;28550;51.228;4.528;2024-03-08T09:46:14;28.63;;;18.00;;
42904;SDS011;28550;51.228;4.528;2024-03-08T09:48:41;30.20;;;18.45;;
42904;SDS011;28550;51.228;4.528;2024-03-08T09:51:08;30.92;;;19.63;;
42904;SDS011;28550;51.228;4.528;2024-03-08T09:53:40;29.98;;;18.63;;
42904;SDS011;28550;51.228;4.528;2024-03-08T09:59:16;32.63;;;18.33;;
42904;SDS011;28550;51.228;4.528;2024-03-08T10:01:51;33.05;;;19.23;;
42904;SDS011;28550;51.228;4.528;2024-03-08T10:04:26;36.35;;;20.00;;
42904;SDS011;28550;51.228;4.528;2024-03-08T10:07:11;35.38;;;19.58;;
42904;SDS011;28550;51.228;4.528;2024-03-08T10:10:03;29.88;;;17.85;;
42904;SDS011;28550;51.228;4.528;2024-03-08T10:12:39;31.25;;;17.65;;
42904;SDS011;28550;51.228;4.528;2024-03-08T10:15:12;31.30;;;17.98;;
42904;SDS011;28550;51.228;4.528;2024-03-08T10:18:00;29.60;;;17.48;;
42904;SDS011;28550;51.228;4.528;2024-03-08T10:21:03;29.03;;;17.80;;
42904;SDS011;28550;51.228;4.528;2024-03-08T10:23:43;29.35;;;16.98;;
42904;SDS011;28550;51.228;4.528;2024-03-08T10:26:42;28.10;;;17.08;;
42904;SDS011;28550;51.228;4.528;2024-03-08T10:29:10;33.25;;;17.92;;
42904;SDS011;28550;51.228;4.528;2024-03-08T10:31:40;25.90;;;17.50;;
42904;SDS011;28550;51.228;4.528;2024-03-08T10:34:10;29.58;;;16.75;;
42904;SDS011;28550;51.228;4.528;2024-03-08T10:36:39;24.83;;;16.45;;
42904;SDS011;28550;51.228;4.528;2024-03-08T10:39:09;24.30;;;16.05;;
42904;SDS011;28550;51.228;4.528;2024-03-08T10:41:55;27.98;;;16.83;;
42904;SDS011;28550;51.228;4.528;2024-03-08T10:47:29;26.25;;;16.52;;
42904;SDS011;28550;51.228;4.528;2024-03-08T10:50:03;27.95;;;16.70;;
42904;SDS011;28550;51.228;4.528;2024-03-08T10:52:50;28.35;;;16.45;;
42904;SDS011;28550;51.228;4.528;2024-03-08T10:55:19;24.33;;;16.20;;
42904;SDS011;28550;51.228;4.528;2024-03-08T10:57:51;27.33;;;16.98;;
42904;SDS011;28550;51.228;4.528;2024-03-08T11:00:19;29.60;;;18.48;;
42904;SDS011;28550;51.228;4.528;2024-03-08T11:08:27;26.00;;;16.25;;
42904;SDS011;28550;51.228;4.528;2024-03-08T11:11:22;29.27;;;16.52;;
42904;SDS011;28550;51.228;4.528;2024-03-08T11:13:57;24.17;;;16.63;;
42904;SDS011;28550;51.228;4.528;2024-03-08T11:19:22;35.00;;;16.88;;
42904;SDS011;28550;51.228;4.528;2024-03-08T11:22:23;24.60;;;16.63;;
42904;SDS011;28550;51.228;4.528;2024-03-08T11:25:03;27.40;;;16.33;;
42904;SDS011;28550;51.228;4.528;2024-03-08T11:27:37;25.00;;;16.42;;
42904;SDS011;28550;51.228;4.528;2024-03-08T11:30:15;25.33;;;16.40;;
42904;SDS011;28550;51.228;4.528;2024-03-08T11:33:30;29.50;;;17.05;;
42904;SDS011;28550;51.228;4.528;2024-03-08T11:36:14;26.98;;;16.25;;
42904;SDS011;28550;51.228;4.528;2024-03-08T11:39:00;28.17;;;16.35;;
42904;SDS011;28550;51.228;4.528;2024-03-08T11:41:43;27.70;;;17.27;;
42904;SDS011;28550;51.228;4.528;2024-03-08T11:44:38;27.98;;;17.83;;
42904;SDS011;28550;51.228;4.528;2024-03-08T11:47:15;29.27;;;18.25;;
42904;SDS011;28550;51.228;4.528;2024-03-08T11:52:20;27.00;;;17.20;;
42904;SDS011;28550;51.228;4.528;2024-03-08T11:54:54;28.80;;;18.23;;
42904;SDS011;28550;51.228;4.528;2024-03-08T11:57:26;28.42;;;17.85;;
42904;SDS011;28550;51.228;4.528;2024-03-08T11:59:54;28.27;;;16.55;;
42904;SDS011;28550;51.228;4.528;2024-03-08T12:05:32;25.27;;;17.33;;
42904;SDS011;28550;51.228;4.528;2024-03-08T12:08:03;29.38;;;19.08;;
42904;SDS011;28550;51.228;4.528;2024-03-08T12:10:36;28.23;;;17.90;;
42904;SDS011;28550;51.228;4.528;2024-03-08T12:13:31;24.05;;;16.60;;
42904;SDS011;28550;51.228;4.528;2024-03-08T12:16:18;24.88;;;16.70;;
42904;SDS011;28550;51.228;4.528;2024-03-08T12:18:48;24.73;;;17.00;;
42904;SDS011;28550;51.228;4.528;2024-03-08T12:21:17;24.60;;;16.90;;
42904;SDS011;28550;51.228;4.528;2024-03-08T12:23:45;29.15;;;16.83;;
42904;SDS011;28550;51.228;4.528;2024-03-08T12:26:16;29.90;;;17.15;;
42904;SDS011;28550;51.228;4.528;2024-03-08T12:31:58;24.88;;;16.63;;
42904;SDS011;28550;51.228;4.528;2024-03-08T12:34:30;24.73;;;16.55;;
42904;SDS011;28550;51.228;4.528;2024-03-08T12:37:01;24.73;;;16.00;;
42904;SDS011;28550;51.228;4.528;2024-03-08T12:39:59;24.80;;;16.42;;
42904;SDS011;28550;51.228;4.528;2024-03-08T12:42:42;27.00;;;16.27;;
42904;SDS011;28550;51.228;4.528;2024-03-08T12:45:16;25.77;;;16.45;;
42904;SDS011;28550;51.228;4.528;2024-03-08T12:47:51;28.85;;;17.50;;
42904;SDS011;28550;51.228;4.528;2024-03-08T12:50:41;25.40;;;16.10;;
42904;SDS011;28550;51.228;4.528;2024-03-08T12:53:13;26.13;;;17.05;;
42904;SDS011;28550;51.228;4.528;2024-03-08T12:55:43;28.02;;;16.88;;
42904;SDS011;28550;51.228;4.528;2024-03-08T12:58:09;28.17;;;17.15;;
42904;SDS011;28550;51.228;4.528;2024-03-08T13:00:40;26.13;;;17.00;;
42904;SDS011;28550;51.228;4.528;2024-03-08T13:03:09;25.73;;;16.75;;
42904;SDS011;28550;51.228;4.528;2024-03-08T13:05:42;26.02;;;18.10;;
42904;SDS011;28550;51.228;4.528;2024-03-08T13:08:22;23.17;;;17.33;;
42904;SDS011;28550;51.228;4.528;2024-03-08T13:10:52;27.52;;;16.33;;
42904;SDS011;28550;51.228;4.528;2024-03-08T13:13:22;32.40;;;17.98;;
42904;SDS011;28550;51.228;4.528;2024-03-08T13:15:51;27.85;;;17.30;;
42904;SDS011;28550;51.228;4.528;2024-03-08T13:18:18;25.52;;;17.70;;
42904;SDS011;28550;51.228;4.528;2024-03-08T13:20:45;24.98;;;16.40;;
42904;SDS011;28550;51.228;4.528;2024-03-08T13:23:14;27.98;;;17.75;;
42904;SDS011;28550;51.228;4.528;2024-03-08T13:25:42;23.30;;;16.73;;
42904;SDS011;28550;51.228;4.528;2024-03-08T13:28:12;24.33;;;17.42;;
42904;SDS011;28550;51.228;4.528;2024-03-08T13:30:40;32.85;;;17.50;;
42904;SDS011;28550;51.228;4.528;2024-03-08T13:33:14;27.42;;;16.85;;
42904;SDS011;28550;51.228;4.528;2024-03-08T13:35:42;26.73;;;16.65;;
42904;SDS011;28550;51.228;4.528;2024-03-08T13:38:08;28.02;;;16.55;;
42904;SDS011;28550;51.228;4.528;2024-03-08T13:40:41;25.77;;;17.15;;
42904;SDS011;28550;51.228;4.528;2024-03-08T13:43:20;31.13;;;17.52;;
42904;SDS011;28550;51.228;4.528;2024-03-08T13:45:46;26.58;;;16.92;;
42904;SDS011;28550;51.228;4.528;2024-03-08T13:50:44;25.73;;;16.25;;
42904;SDS011;28550;51.228;4.528;2024-03-08T13:53:14;25.45;;;16.23;;
42904;SDS011;28550;51.228;4.528;2024-03-08T13:55:40;26.67;;;15.77;;
42904;SDS011;28550;51.228;4.528;2024-03-08T13:58:08;24.35;;;16.75;;
42904;SDS011;28550;51.228;4.528;2024-03-08T14:00:36;23.65;;;16.52;;
42904;SDS011;28550;51.228;4.528;2024-03-08T14:03:01;25.65;;;15.90;;
42904;SDS011;28550;51.228;4.528;2024-03-08T14:05:31;25.58;;;16.20;;
42904;SDS011;28550;51.228;4.528;2024-03-08T14:08:00;25.90;;;16.17;;
42904;SDS011;28550;51.228;4.528;2024-03-08T14:10:32;26.52;;;16.60;;
42904;SDS011;28550;51.228;4.528;2024-03-08T14:13:05;21.67;;;14.75;;
42904;SDS011;28550;51.228;4.528;2024-03-08T14:15:33;25.25;;;15.90;;
42904;SDS011;28550;51.228;4.528;2024-03-08T14:18:03;27.55;;;15.93;;
42904;SDS011;28550;51.228;4.528;2024-03-08T14:20:31;23.45;;;15.02;;
42904;SDS011;28550;51.228;4.528;2024-03-08T14:22:57;24.13;;;15.57;;
42904;SDS011;28550;51.228;4.528;2024-03-08T14:25:24;24.50;;;15.50;;
42904;SDS011;28550;51.228;4.528;2024-03-08T14:27:50;23.60;;;14.85;;
42904;SDS011;28550;51.228;4.528;2024-03-08T14:30:25;21.45;;;14.93;;
42904;SDS011;28550;51.228;4.528;2024-03-08T14:33:03;26.05;;;15.30;;
42904;SDS011;28550;51.228;4.528;2024-03-08T14:35:36;24.08;;;14.65;;
42904;SDS011;28550;51.228;4.528;2024-03-08T14:38:05;22.10;;;14.65;;
42904;SDS011;28550;51.228;4.528;2024-03-08T14:40:35;26.40;;;14.60;;
42904;SDS011;28550;51.228;4.528;2024-03-08T14:43:04;25.58;;;14.50;;
42904;SDS011;28550;51.228;4.528;2024-03-08T14:45:30;25.83;;;16.23;;
42904;SDS011;28550;51.228;4.528;2024-03-08T14:47:57;23.58;;;14.95;;
42904;SDS011;28550;51.228;4.528;2024-03-08T14:50:23;24.63;;;14.95;;
42904;SDS011;28550;51.228;4.528;2024-03-08T14:52:50;30.35;;;15.65;;
42904;SDS011;28550;51.228;4.528;2024-03-08T14:55:37;23.20;;;15.20;;
42904;SDS011;28550;51.228;4.528;2024-03-08T14:58:05;21.88;;;14.48;;
42904;SDS011;28550;51.228;4.528;2024-03-08T15:00:30;21.98;;;14.70;;
42904;SDS011;28550;51.228;4.528;2024-03-08T15:03:00;25.20;;;15.45;;
42904;SDS011;28550;51.228;4.528;2024-03-08T15:05:33;26.23;;;14.80;;
42904;SDS011;28550;51.228;4.528;2024-03-08T15:08:04;23.27;;;15.38;;
42904;SDS011;28550;51.228;4.528;2024-03-08T15:10:36;30.52;;;15.45;;
42904;SDS011;28550;51.228;4.528;2024-03-08T15:13:05;20.45;;;14.60;;
42904;SDS011;28550;51.228;4.528;2024-03-08T15:15:42;19.50;;;13.30;;
42904;SDS011;28550;51.228;4.528;2024-03-08T15:18:11;24.50;;;13.75;;
42904;SDS011;28550;51.228;4.528;2024-03-08T15:20:38;24.83;;;15.27;;
42904;SDS011;28550;51.228;4.528;2024-03-08T15:23:04;22.80;;;14.10;;
42904;SDS011;28550;51.228;4.528;2024-03-08T15:25:35;25.10;;;14.90;;
42904;SDS011;28550;51.228;4.528;2024-03-08T15:28:01;23.77;;;14.73;;
42904;SDS011;28550;51.228;4.528;2024-03-08T15:30:29;23.48;;;14.70;;
42904;SDS011;28550;51.228;4.528;2024-03-08T15:32:57;27.85;;;15.13;;
42904;SDS011;28550;51.228;4.528;2024-03-08T15:35:25;20.40;;;13.90;;
42904;SDS011;28550;51.228;4.528;2024-03-08T15:37:51;24.45;;;14.18;;
42904;SDS011;28550;51.228;4.528;2024-03-08T15:40:23;20.63;;;13.32;;
42904;SDS011;28550;51.228;4.528;2024-03-08T15:42:58;24.13;;;14.90;;
42904;SDS011;28550;51.228;4.528;2024-03-08T15:45:24;25.60;;;14.95;;
42904;SDS011;28550;51.228;4.528;2024-03-08T15:47:52;23.70;;;14.77;;
42904;SDS011;28550;51.228;4.528;2024-03-08T15:50:18;27.20;;;15.20;;
42904;SDS011;28550;51.228;4.528;2024-03-08T15:52:47;24.55;;;14.40;;
42904;SDS011;28550;51.228;4.528;2024-03-08T15:55:16;22.80;;;14.38;;
42904;SDS011;28550;51.228;4.528;2024-03-08T15:57:47;23.83;;;13.63;;
42904;SDS011;28550;51.228;4.528;2024-03-08T16:00:17;23.10;;;13.73;;
42904;SDS011;28550;51.228;4.528;2024-03-08T16:03:00;23.95;;;14.65;;
42904;SDS011;28550;51.228;4.528;2024-03-08T16:05:28;29.73;;;14.57;;
42904;SDS011;28550;51.228;4.528;2024-03-08T16:07:55;38.03;;;16.30;;
42904;SDS011;28550;51.228;4.528;2024-03-08T16:10:22;26.55;;;14.80;;
42904;SDS011;28550;51.228;4.528;2024-03-08T16:12:48;26.75;;;15.48;;
42904;SDS011;28550;51.228;4.528;2024-03-08T16:15:15;25.80;;;15.10;;
42904;SDS011;28550;51.228;4.528;2024-03-08T16:17:41;29.58;;;15.57;;
42904;SDS011;28550;51.228;4.528;2024-03-08T16:20:08;25.08;;;15.32;;
42904;SDS011;28550;51.228;4.528;2024-03-08T16:22:43;27.38;;;14.93;;
42904;SDS011;28550;51.228;4.528;2024-03-08T16:25:20;29.35;;;15.45;;
42904;SDS011;28550;51.228;4.528;2024-03-08T16:27:48;26.67;;;15.57;;
42904;SDS011;28550;51.228;4.528;2024-03-08T16:30:20;24.38;;;14.82;;
42904;SDS011;28550;51.228;4.528;2024-03-08T16:32:47;25.92;;;14.50;;
42904;SDS011;28550;51.228;4.528;2024-03-08T16:35:26;26.48;;;15.55;;
42904;SDS011;28550;51.228;4.528;2024-03-08T16:37:52;25.90;;;15.23;;
42904;SDS011;28550;51.228;4.528;2024-03-08T16:40:24;26.42;;;15.10;;
42904;SDS011;28550;51.228;4.528;2024-03-08T16:42:50;26.02;;;14.85;;
42904;SDS011;28550;51.228;4.528;2024-03-08T16:45:22;26.17;;;15.45;;
42904;SDS011;28550;51.228;4.528;2024-03-08T16:47:48;32.58;;;15.13;;
42904;SDS011;28550;51.228;4.528;2024-03-08T16:50:21;31.88;;;15.65;;
42904;SDS011;28550;51.228;4.528;2024-03-08T16:52:48;25.92;;;14.00;;
42904;SDS011;28550;51.228;4.528;2024-03-08T16:55:16;30.80;;;15.60;;
42904;SDS011;28550;51.228;4.528;2024-03-08T16:57:47;27.05;;;16.73;;
42904;SDS011;28550;51.228;4.528;2024-03-08T17:02:48;31.10;;;15.70;;
42904;SDS011;28550;51.228;4.528;2024-03-08T17:05:14;28.42;;;16.05;;
42904;SDS011;28550;51.228;4.528;2024-03-08T17:07:45;29.70;;;15.73;;
42904;SDS011;28550;51.228;4.528;2024-03-08T17:10:20;25.23;;;15.68;;
42904;SDS011;28550;51.228;4.528;2024-03-08T17:12:49;30.60;;;16.67;;
42904;SDS011;28550;51.228;4.528;2024-03-08T17:15:22;25.70;;;14.13;;
42904;SDS011;28550;51.228;4.528;2024-03-08T17:17:48;34.35;;;16.40;;
42904;SDS011;28550;51.228;4.528;2024-03-08T17:20:26;25.42;;;15.00;;
42904;SDS011;28550;51.228;4.528;2024-03-08T17:22:57;26.58;;;15.75;;
42904;SDS011;28550;51.228;4.528;2024-03-08T17:25:24;27.92;;;14.73;;
42904;SDS011;28550;51.228;4.528;2024-03-08T17:27:52;27.40;;;15.55;;
42904;SDS011;28550;51.228;4.528;2024-03-08T17:30:23;27.23;;;15.43;;
42904;SDS011;28550;51.228;4.528;2024-03-08T17:32:54;27.98;;;14.82;;
42904;SDS011;28550;51.228;4.528;2024-03-08T17:35:28;28.27;;;14.50;;
42904;SDS011;28550;51.228;4.528;2024-03-08T17:37:57;26.15;;;14.35;;
42904;SDS011;28550;51.228;4.528;2024-03-08T17:40:36;28.45;;;15.05;;
42904;SDS011;28550;51.228;4.528;2024-03-08T17:43:04;28.85;;;15.52;;
42904;SDS011;28550;51.228;4.528;2024-03-08T17:45:36;29.88;;;14.85;;
42904;SDS011;28550;51.228;4.528;2024-03-08T17:48:05;32.63;;;15.80;;
42904;SDS011;28550;51.228;4.528;2024-03-08T17:50:42;26.75;;;14.48;;
42904;SDS011;28550;51.228;4.528;2024-03-08T17:53:08;22.85;;;14.70;;
42904;SDS011;28550;51.228;4.528;2024-03-08T17:55:39;29.38;;;14.63;;
42904;SDS011;28550;51.228;4.528;2024-03-08T17:58:09;26.23;;;14.43;;
42904;SDS011;28550;51.228;4.528;2024-03-08T18:00:36;28.42;;;15.73;;
42904;SDS011;28550;51.228;4.528;2024-03-08T18:03:02;30.00;;;14.52;;
42904;SDS011;28550;51.228;4.528;2024-03-08T18:05:40;24.38;;;14.05;;
42904;SDS011;28550;51.228;4.528;2024-03-08T18:08:09;24.50;;;14.07;;
42904;SDS011;28550;51.228;4.528;2024-03-08T18:10:40;26.98;;;15.32;;
42904;SDS011;28550;51.228;4.528;2024-03-08T18:13:06;25.33;;;14.52;;
42904;SDS011;28550;51.228;4.528;2024-03-08T18:15:45;27.13;;;14.88;;
42904;SDS011;28550;51.228;4.528;2024-03-08T18:18:21;28.05;;;14.30;;
42904;SDS011;28550;51.228;4.528;2024-03-08T18:20:49;31.15;;;15.50;;
42904;SDS011;28550;51.228;4.528;2024-03-08T18:23:17;27.05;;;15.23;;
42904;SDS011;28550;51.228;4.528;2024-03-08T18:25:46;24.75;;;14.25;;
42904;SDS011;28550;51.228;4.528;2024-03-08T18:28:13;32.22;;;16.67;;
42904;SDS011;28550;51.228;4.528;2024-03-08T18:30:42;30.73;;;15.70;;
42904;SDS011;28550;51.228;4.528;2024-03-08T18:33:09;26.63;;;15.43;;
42904;SDS011;28550;51.228;4.528;2024-03-08T18:35:41;30.13;;;15.40;;
42904;SDS011;28550;51.228;4.528;2024-03-08T18:38:12;27.90;;;14.57;;
42904;SDS011;28550;51.228;4.528;2024-03-08T18:40:39;26.52;;;14.40;;
42904;SDS011;28550;51.228;4.528;2024-03-08T18:43:09;30.88;;;15.93;;
42904;SDS011;28550;51.228;4.528;2024-03-08T18:45:36;29.08;;;14.60;;
42904;SDS011;28550;51.228;4.528;2024-03-08T18:48:03;31.83;;;15.48;;
42904;SDS011;28550;51.228;4.528;2024-03-08T18:50:31;30.35;;;16.90;;
42904;SDS011;28550;51.228;4.528;2024-03-08T18:52:57;30.27;;;15.23;;
42904;SDS011;28550;51.228;4.528;2024-03-08T18:55:24;31.08;;;16.02;;
42904;SDS011;28550;51.228;4.528;2024-03-08T18:57:53;32.25;;;15.55;;
42904;SDS011;28550;51.228;4.528;2024-03-08T19:00:26;30.30;;;15.15;;
42904;SDS011;28550;51.228;4.528;2024-03-08T19:02:58;32.45;;;15.80;;
42904;SDS011;28550;51.228;4.528;2024-03-08T19:05:25;34.95;;;16.15;;
42904;SDS011;28550;51.228;4.528;2024-03-08T19:07:55;28.70;;;16.15;;
42904;SDS011;28550;51.228;4.528;2024-03-08T19:10:28;32.28;;;16.35;;
42904;SDS011;28550;51.228;4.528;2024-03-08T19:13:14;30.85;;;15.73;;
42904;SDS011;28550;51.228;4.528;2024-03-08T19:15:41;32.88;;;14.95;;
42904;SDS011;28550;51.228;4.528;2024-03-08T19:29:35;33.65;;;15.48;;
42904;SDS011;28550;51.228;4.528;2024-03-08T19:32:01;30.63;;;14.40;;
42904;SDS011;28550;51.228;4.528;2024-03-08T19:34:27;30.33;;;15.63;;
42904;SDS011;28550;51.228;4.528;2024-03-08T19:36:54;31.77;;;15.25;;
42904;SDS011;28550;51.228;4.528;2024-03-08T19:39:20;31.55;;;15.38;;
42904;SDS011;28550;51.228;4.528;2024-03-08T19:41:50;29.85;;;16.05;;
42904;SDS011;28550;51.228;4.528;2024-03-08T19:44:15;31.17;;;16.88;;
42904;SDS011;28550;51.228;4.528;2024-03-08T19:46:42;31.70;;;15.43;;
42904;SDS011;28550;51.228;4.528;2024-03-08T19:49:08;29.58;;;16.10;;
42904;SDS011;28550;51.228;4.528;2024-03-08T19:51:34;29.95;;;15.48;;
42904;SDS011;28550;51.228;4.528;2024-03-08T19:54:02;30.50;;;15.60;;
42904;SDS011;28550;51.228;4.528;2024-03-08T19:56:29;28.77;;;15.10;;
42904;SDS011;28550;51.228;4.528;2024-03-08T19:58:56;31.08;;;14.77;;
42904;SDS011;28550;51.228;4.528;2024-03-08T20:01:32;29.52;;;14.88;;
42904;SDS011;28550;51.228;4.528;2024-03-08T20:03:58;27.98;;;14.73;;
42904;SDS011;28550;51.228;4.528;2024-03-08T20:06:23;27.33;;;14.77;;
42904;SDS011;28550;51.228;4.528;2024-03-08T20:08:49;27.35;;;15.52;;
42904;SDS011;28550;51.228;4.528;2024-03-08T20:11:15;30.50;;;16.13;;
42904;SDS011;28550;51.228;4.528;2024-03-08T20:13:40;30.85;;;15.55;;
42904;SDS011;28550;51.228;4.528;2024-03-08T20:16:08;31.42;;;15.57;;
42904;SDS011;28550;51.228;4.528;2024-03-08T20:18:37;27.27;;;15.10;;
42904;SDS011;28550;51.228;4.528;2024-03-08T20:21:04;31.38;;;15.45;;
42904;SDS011;28550;51.228;4.528;2024-03-08T20:23:30;30.35;;;15.23;;
42904;SDS011;28550;51.228;4.528;2024-03-08T20:25:56;30.35;;;16.25;;
42904;SDS011;28550;51.228;4.528;2024-03-08T20:28:22;31.45;;;15.93;;
42904;SDS011;28550;51.228;4.528;2024-03-08T20:30:51;31.50;;;15.68;;
42904;SDS011;28550;51.228;4.528;2024-03-08T20:33:17;30.70;;;16.50;;
42904;SDS011;28550;51.228;4.528;2024-03-08T20:35:45;30.50;;;14.80;;
42904;SDS011;28550;51.228;4.528;2024-03-08T20:38:13;33.25;;;16.92;;
42904;SDS011;28550;51.228;4.528;2024-03-08T20:40:45;25.33;;;14.50;;
42904;SDS011;28550;51.228;4.528;2024-03-08T20:43:12;27.48;;;14.85;;
42904;SDS011;28550;51.228;4.528;2024-03-08T20:45:43;33.45;;;16.48;;
42904;SDS011;28550;51.228;4.528;2024-03-08T20:48:17;27.40;;;15.70;;
42904;SDS011;28550;51.228;4.528;2024-03-08T20:50:45;29.90;;;15.43;;
42904;SDS011;28550;51.228;4.528;2024-03-08T20:53:15;30.60;;;16.30;;
42904;SDS011;28550;51.228;4.528;2024-03-08T20:55:42;34.55;;;16.10;;
42904;SDS011;28550;51.228;4.528;2024-03-08T20:58:09;29.58;;;14.93;;
42904;SDS011;28550;51.228;4.528;2024-03-08T21:00:35;29.50;;;15.85;;
42904;SDS011;28550;51.228;4.528;2024-03-08T21:03:13;34.33;;;16.85;;
42904;SDS011;28550;51.228;4.528;2024-03-08T21:05:41;33.45;;;15.77;;
42904;SDS011;28550;51.228;4.528;2024-03-08T21:08:26;34.28;;;16.80;;
42904;SDS011;28550;51.228;4.528;2024-03-08T21:10:53;35.60;;;16.42;;
42904;SDS011;28550;51.228;4.528;2024-03-08T21:13:26;32.45;;;16.20;;
42904;SDS011;28550;51.228;4.528;2024-03-08T21:16:01;33.50;;;16.85;;
42904;SDS011;28550;51.228;4.528;2024-03-08T21:18:28;33.63;;;16.92;;
42904;SDS011;28550;51.228;4.528;2024-03-08T21:20:55;33.88;;;16.58;;
42904;SDS011;28550;51.228;4.528;2024-03-08T21:23:23;32.13;;;15.82;;
42904;SDS011;28550;51.228;4.528;2024-03-08T21:25:51;30.52;;;16.20;;
42904;SDS011;28550;51.228;4.528;2024-03-08T21:28:19;28.40;;;15.85;;
42904;SDS011;28550;51.228;4.528;2024-03-08T21:30:52;30.65;;;15.73;;
42904;SDS011;28550;51.228;4.528;2024-03-08T21:33:37;32.85;;;16.33;;
42904;SDS011;28550;51.228;4.528;2024-03-08T21:36:11;31.00;;;17.08;;
42904;SDS011;28550;51.228;4.528;2024-03-08T21:49:22;30.25;;;16.42;;
42904;SDS011;28550;51.228;4.528;2024-03-08T21:52:22;35.72;;;17.58;;
42904;SDS011;28550;51.228;4.528;2024-03-08T21:54:52;32.20;;;16.70;;
42904;SDS011;28550;51.228;4.528;2024-03-08T21:57:18;30.73;;;17.77;;
42904;SDS011;28550;51.228;4.528;2024-03-08T21:59:47;30.73;;;16.30;;
42904;SDS011;28550;51.228;4.528;2024-03-08T22:02:12;30.13;;;17.05;;
42904;SDS011;28550;51.228;4.528;2024-03-08T22:04:38;33.05;;;16.95;;
42904;SDS011;28550;51.228;4.528;2024-03-08T22:07:04;36.45;;;17.75;;
42904;SDS011;28550;51.228;4.528;2024-03-08T22:09:34;30.48;;;16.40;;
42904;SDS011;28550;51.228;4.528;2024-03-08T22:11:59;35.85;;;17.05;;
42904;SDS011;28550;51.228;4.528;2024-03-08T22:14:28;32.92;;;16.88;;
42904;SDS011;28550;51.228;4.528;2024-03-08T22:16:54;32.20;;;16.70;;
42904;SDS011;28550;51.228;4.528;2024-03-08T22:19:20;37.33;;;18.33;;
42904;SDS011;28550;51.228;4.528;2024-03-08T22:21:48;40.53;;;17.35;;
42904;SDS011;28550;51.228;4.528;2024-03-08T22:24:15;35.90;;;17.65;;
42904;SDS011;28550;51.228;4.528;2024-03-08T22:26:40;35.35;;;17.35;;
42904;SDS011;28550;51.228;4.528;2024-03-08T22:29:08;33.70;;;17.40;;
42904;SDS011;28550;51.228;4.528;2024-03-08T22:31:35;38.33;;;17.77;;
42904;SDS011;28550;51.228;4.528;2024-03-08T22:34:02;35.67;;;18.17;;
42904;SDS011;28550;51.228;4.528;2024-03-08T22:36:28;34.60;;;17.42;;
42904;SDS011;28550;51.228;4.528;2024-03-08T22:38:55;33.65;;;17.15;;
42904;SDS011;28550;51.228;4.528;2024-03-08T22:41:20;35.10;;;17.02;;
42904;SDS011;28550;51.228;4.528;2024-03-08T22:43:47;36.75;;;18.17;;
42904;SDS011;28550;51.228;4.528;2024-03-08T22:46:16;35.92;;;17.40;;
42904;SDS011;28550;51.228;4.528;2024-03-08T22:48:42;39.42;;;18.83;;
42904;SDS011;28550;51.228;4.528;2024-03-08T22:51:08;36.60;;;17.75;;
42904;SDS011;28550;51.228;4.528;2024-03-08T22:53:43;34.75;;;17.25;;
42904;SDS011;28550;51.228;4.528;2024-03-08T22:56:10;36.00;;;19.38;;
42904;SDS011;28550;51.228;4.528;2024-03-08T22:58:36;34.25;;;17.63;;
42904;SDS011;28550;51.228;4.528;2024-03-08T23:01:04;37.13;;;18.73;;
42904;SDS011;28550;51.228;4.528;2024-03-08T23:03:30;33.65;;;18.13;;
42904;SDS011;28550;51.228;4.528;2024-03-08T23:05:57;37.33;;;18.20;;
42904;SDS011;28550;51.228;4.528;2024-03-08T23:08:25;35.05;;;17.67;;
42904;SDS011;28550;51.228;4.528;2024-03-08T23:10:55;33.47;;;17.83;;
42904;SDS011;28550;51.228;4.528;2024-03-08T23:13:22;35.78;;;18.35;;
42904;SDS011;28550;51.228;4.528;2024-03-08T23:15:50;37.13;;;18.83;;
42904;SDS011;28550;51.228;4.528;2024-03-08T23:18:16;37.00;;;18.98;;
42904;SDS011;28550;51.228;4.528;2024-03-08T23:20:45;34.38;;;18.20;;
42904;SDS011;28550;51.228;4.528;2024-03-08T23:23:13;35.42;;;18.65;;
42904;SDS011;28550;51.228;4.528;2024-03-08T23:25:40;38.60;;;18.75;;
42904;SDS011;28550;51.228;4.528;2024-03-08T23:28:07;37.08;;;17.73;;